In Rescue
 
Open Full Screen Window  High Contrast Mode
Wind Gusting 20 knots
15
May 20, 2019 3:03 PM EDT
Weather Information
Wind Direction
  280 °
Wind Speed
  15 kt (17 mph)
Wind Gust
  20 kt (23 mph)
Altimeter
30.00 in
Visibility
10 SM
Temperature
19° C
66° F
Dewpoint
11° C
52° F
Humidity
60%
1hr Rain Fall
00.00 in.
24hr Rain Fall
00.05 in.
Sky Condition
Broken @ 4,500 ft
VFR

METAR K4I3 201903Z AUTO 28015G20KT 10SM BKN045 19/11 A3000 RMK AO2

FAA Disclaimer: The data displayed is for advisory purposes only and is not to be used for flight planning or operations.